Time;durP1;ratioP1;P1;durP2;ratioP2;P2;SDS_P1;SDS_P2;PMS_P1;PMS_P2;Temp;Humidity;BMP_temperature;BMP_pressure;BME280_temperature;BME280_humidity;BME280_pressure;Samples;Min_cycle;Max_cycle;Signal;HPM_P1;HPM_P2
2022/01/29 00:01:42;;;;;;;2.65;0.77;;;9.20;99.90;;;;;;4907537;29;20061;-59
2022/01/29 00:04:11;;;;;;;3.95;0.93;;;9.20;99.90;;;;;;4893359;29;20056;-62
2022/01/29 00:06:38;;;;;;;1.63;0.70;;;9.30;99.90;;;;;;4910774;29;20056;-59
2022/01/29 00:09:08;;;;;;;1.55;0.47;;;9.30;99.90;;;;;;4900414;29;20405;-59
2022/01/29 00:11:37;;;;;;;3.47;0.98;;;9.30;99.90;;;;;;4894033;29;20067;-59
2022/01/29 00:14:06;;;;;;;4.10;0.85;;;9.30;99.90;;;;;;4893295;29;20056;-62
2022/01/29 00:16:34;;;;;;;8.15;1.65;;;9.30;99.90;;;;;;4894133;29;20413;-61
2022/01/29 00:19:03;;;;;;;2.75;0.65;;;9.30;99.90;;;;;;4911729;29;20052;-58
2022/01/29 00:21:30;;;;;;;3.63;1.00;;;9.30;99.90;;;;;;4912587;29;20055;-59
2022/01/29 00:23:58;;;;;;;1.27;0.60;;;9.40;99.90;;;;;;4912000;29;20044;-60
2022/01/29 00:26:27;;;;;;;3.00;0.70;;;9.40;99.90;;;;;;4912368;29;20048;-61
2022/01/29 00:28:57;;;;;;;3.63;1.07;;;9.30;99.90;;;;;;4901052;29;20493;-64
2022/01/29 00:31:25;;;;;;;2.55;0.68;;;9.40;99.90;;;;;;4893623;29;20063;-66
2022/01/29 00:33:53;;;;;;;0.90;0.60;;;9.40;99.90;;;;;;4893212;29;20063;-62
2022/01/29 00:36:21;;;;;;;1.35;0.70;;;9.40;99.90;;;;;;4893428;29;20061;-62
2022/01/29 00:38:49;;;;;;;1.95;0.70;;;9.40;99.90;;;;;;4895526;29;20134;-60
2022/01/29 00:41:17;;;;;;;1.33;0.77;;;9.40;99.90;;;;;;4908600;29;20056;-62
2022/01/29 00:43:44;;;;;;;1.90;0.80;;;9.40;99.90;;;;;;4911774;29;20044;-61
2022/01/29 00:46:12;;;;;;;7.85;0.85;;;9.40;99.90;;;;;;4907644;29;20053;-61
2022/01/29 00:48:40;;;;;;;4.47;0.70;;;9.40;99.90;;;;;;4893223;29;20059;-59
2022/01/29 00:51:08;;;;;;;0.63;0.55;;;9.40;99.90;;;;;;4909373;29;20053;-58
2022/01/29 00:53:36;;;;;;;2.65;0.80;;;9.40;99.90;;;;;;4906558;29;20044;-58
2022/01/29 00:56:06;;;;;;;2.42;0.80;;;9.40;99.90;;;;;;4912094;29;20507;-59
2022/01/29 00:58:34;;;;;;;2.97;0.75;;;9.40;99.90;;;;;;4906276;29;20051;-61
2022/01/29 01:01:03;;;;;;;0.82;0.43;;;9.30;99.90;;;;;;4909744;29;20674;-65
2022/01/29 01:03:31;;;;;;;3.63;0.75;;;9.30;99.90;;;;;;4900279;29;20401;-64
2022/01/29 01:05:58;;;;;;;3.88;0.73;;;9.30;99.90;;;;;;4892157;29;20052;-63
2022/01/29 01:08:26;;;;;;;5.07;1.15;;;9.30;99.90;;;;;;4896763;29;20060;-65
2022/01/29 01:10:54;;;;;;;1.70;0.90;;;9.30;99.90;;;;;;4914394;29;20048;-63
2022/01/29 01:13:22;;;;;;;2.03;0.63;;;9.30;99.90;;;;;;4909554;29;20079;-64
2022/01/29 01:15:50;;;;;;;1.58;0.80;;;9.30;99.90;;;;;;4896943;29;20056;-61
2022/01/29 01:18:18;;;;;;;0.50;0.50;;;9.20;99.90;;;;;;4909541;29;20056;-62
2022/01/29 01:20:46;;;;;;;3.55;0.70;;;9.20;99.90;;;;;;4895605;29;20539;-65
2022/01/29 01:23:14;;;;;;;1.52;0.77;;;9.20;99.90;;;;;;4896984;29;20064;-63
2022/01/29 01:25:42;;;;;;;2.15;0.65;;;9.20;99.90;;;;;;4896756;29;20519;-58
2022/01/29 01:28:10;;;;;;;3.65;0.80;;;9.10;99.90;;;;;;4896532;29;20068;-58
2022/01/29 01:30:38;;;;;;;3.70;0.73;;;9.10;99.90;;;;;;4896865;29;20049;-65
2022/01/29 01:33:06;;;;;;;1.42;0.57;;;9.10;99.90;;;;;;4896573;29;20067;-60
2022/01/29 01:35:43;;;;;;;1.75;0.60;;;9.20;99.90;;;;;;4905408;29;20052;-65
2022/01/29 01:40:41;;;;;;;2.35;0.60;;;9.30;99.90;;;;;;4896558;29;20052;-59
2022/01/29 01:43:09;;;;;;;0.68;0.40;;;9.30;99.90;;;;;;4896383;29;20048;-62
2022/01/29 01:45:37;;;;;;;1.15;0.68;;;9.30;99.90;;;;;;4896627;29;20052;-63
2022/01/29 01:48:06;;;;;;;1.17;0.35;;;9.40;99.90;;;;;;4908989;29;20511;-62
2022/01/29 01:50:35;;;;;;;5.05;1.20;;;9.40;99.90;;;;;;4915289;29;20047;-61
2022/01/29 01:53:04;;;;;;;4.55;0.82;;;9.50;99.90;;;;;;4910207;29;20057;-61
2022/01/29 01:55:32;;;;;;;2.22;0.60;;;9.50;99.90;;;;;;4895167;29;20130;-58
2022/01/29 01:58:01;;;;;;;1.80;0.70;;;9.50;99.90;;;;;;4879303;29;20396;-58
2022/01/29 02:00:30;;;;;;;2.25;0.60;;;9.50;99.90;;;;;;4913817;29;20678;-58
2022/01/29 02:02:57;;;;;;;1.73;0.85;;;9.50;99.90;;;;;;4901155;29;20057;-58
2022/01/29 02:05:26;;;;;;;9.60;1.85;;;9.50;99.90;;;;;;4894905;29;20044;-57
2022/01/29 02:07:54;;;;;;;5.72;1.10;;;9.40;99.90;;;;;;4895927;29;20080;-58
2022/01/29 02:10:25;;;;;;;2.20;0.50;;;9.40;99.90;;;;;;4879711;29;20052;-58
2022/01/29 02:12:58;;;;;;;2.80;1.17;;;9.40;99.90;;;;;;4912803;29;20056;-58
2022/01/29 02:15:27;;;;;;;5.30;0.90;;;9.40;99.90;;;;;;4895850;29;20044;-58
2022/01/29 02:17:56;;;;;;;1.45;0.65;;;9.40;99.90;;;;;;4894668;29;20555;-59
2022/01/29 02:20:26;;;;;;;4.28;0.80;;;9.40;99.90;;;;;;4895678;29;20040;-58
2022/01/29 02:22:54;;;;;;;3.05;0.82;;;9.50;99.90;;;;;;4898728;29;20052;-58
2022/01/29 02:25:40;;;;;;;2.15;1.27;;;9.50;99.90;;;;;;4895698;29;20049;-59
2022/01/29 02:28:14;;;;;;;3.63;0.77;;;9.60;99.90;;;;;;4895200;29;20056;-59
2022/01/29 02:30:50;;;;;;;2.35;0.70;;;9.70;99.90;;;;;;4898687;29;20416;-59
2022/01/29 02:33:18;;;;;;;5.75;0.90;;;9.80;99.90;;;;;;4899151;29;20052;-59
2022/01/29 02:35:49;;;;;;;2.25;0.55;;;9.80;99.90;;;;;;4899055;29;20059;-59
2022/01/29 02:38:19;;;;;;;3.22;1.20;;;9.90;99.90;;;;;;4898333;29;20052;-59
2022/01/29 02:40:55;;;;;;;5.85;0.88;;;10.00;99.90;;;;;;4898721;29;20052;-59
2022/01/29 02:43:29;;;;;;;2.05;0.45;;;10.00;99.90;;;;;;4898640;29;20492;-59
2022/01/29 02:46:07;;;;;;;1.30;0.45;;;10.10;99.90;;;;;;4902962;29;20055;-59
2022/01/29 02:48:35;;;;;;;2.20;0.70;;;10.10;99.90;;;;;;4917220;29;20045;-58
2022/01/29 02:51:03;;;;;;;2.95;0.65;;;10.20;99.90;;;;;;4917370;29;20059;-58
2022/01/29 02:53:31;;;;;;;3.83;0.70;;;10.20;99.90;;;;;;4917336;29;20044;-59
2022/01/29 02:55:59;;;;;;;1.35;0.50;;;10.30;99.90;;;;;;4917540;29;20052;-58
2022/01/29 02:58:27;;;;;;;2.40;0.70;;;10.30;99.90;;;;;;4916661;29;20048;-58
2022/01/29 03:00:55;;;;;;;2.55;0.60;;;10.40;99.90;;;;;;4917308;29;20056;-58
2022/01/29 03:03:24;;;;;;;6.03;0.82;;;10.40;99.90;;;;;;4917132;29;20052;-59
2022/01/29 03:05:52;;;;;;;2.03;0.93;;;10.40;99.90;;;;;;4917019;29;20408;-65
2022/01/29 03:08:20;;;;;;;3.67;0.80;;;10.30;99.90;;;;;;4916978;29;20048;-60
2022/01/29 03:10:48;;;;;;;2.22;0.50;;;10.30;99.90;;;;;;4917035;29;20082;-61
2022/01/29 03:13:16;;;;;;;3.00;0.77;;;10.20;99.90;;;;;;4916746;29;20049;-59
2022/01/29 03:15:44;;;;;;;1.70;0.68;;;10.20;99.90;;;;;;4916964;29;20040;-63
2022/01/29 03:18:12;;;;;;;4.05;0.68;;;10.20;99.90;;;;;;4916845;29;20047;-59
2022/01/29 03:20:40;;;;;;;7.80;1.33;;;10.20;99.90;;;;;;4916824;29;20060;-64
2022/01/29 03:23:08;;;;;;;0.95;0.73;;;10.10;99.90;;;;;;4916831;29;20052;-62
2022/01/29 03:25:36;;;;;;;4.93;1.20;;;10.10;99.90;;;;;;4916708;29;20496;-63
2022/01/29 03:28:04;;;;;;;2.60;0.77;;;10.00;99.90;;;;;;4915956;29;20052;-60
2022/01/29 03:30:32;;;;;;;1.00;0.52;;;10.00;99.90;;;;;;4916447;29;20059;-62
2022/01/29 03:33:00;;;;;;;2.55;0.60;;;10.00;99.90;;;;;;4915444;29;20044;-62
2022/01/29 03:35:28;;;;;;;0.68;0.50;;;10.00;99.90;;;;;;4916661;29;20381;-63
2022/01/29 03:37:56;;;;;;;4.10;0.57;;;10.00;99.90;;;;;;4915361;29;20040;-64
2022/01/29 03:40:24;;;;;;;1.20;0.50;;;10.00;99.90;;;;;;4916390;29;20044;-62
2022/01/29 03:43:08;;;;;;;3.15;1.15;;;10.00;99.90;;;;;;4916487;29;20055;-61
2022/01/29 03:45:36;;;;;;;2.42;0.60;;;10.00;99.90;;;;;;4916633;29;20431;-62
2022/01/29 03:48:06;;;;;;;6.68;1.20;;;10.00;99.90;;;;;;4916244;29;20051;-61
2022/01/29 03:50:35;;;;;;;3.45;0.60;;;9.90;99.90;;;;;;4916258;29;20522;-60
2022/01/29 03:53:03;;;;;;;3.10;1.00;;;9.90;99.90;;;;;;4915006;29;20048;-60
2022/01/29 03:55:31;;;;;;;3.30;1.00;;;9.80;99.90;;;;;;4899284;29;20059;-62
2022/01/29 03:57:59;;;;;;;4.40;0.65;;;9.80;99.90;;;;;;4916336;29;20052;-61
2022/01/29 04:00:27;;;;;;;4.63;0.65;;;9.80;99.90;;;;;;4916430;29;20059;-59
2022/01/29 04:02:55;;;;;;;0.98;0.85;;;9.80;99.90;;;;;;4916154;29;20055;-61
2022/01/29 04:05:26;;;;;;;3.85;1.02;;;9.80;99.90;;;;;;4915792;29;20411;-59
2022/01/29 04:07:54;;;;;;;3.25;0.50;;;9.80;99.90;;;;;;4915037;29;20059;-61
2022/01/29 04:10:23;;;;;;;2.75;1.00;;;9.80;99.90;;;;;;4915998;29;20530;-64
2022/01/29 04:12:53;;;;;;;0.43;0.40;;;9.80;99.90;;;;;;4914803;29;20052;-60
2022/01/29 04:15:21;;;;;;;5.17;1.20;;;9.70;99.90;;;;;;4916044;29;20056;-61
2022/01/29 04:17:49;;;;;;;1.13;0.40;;;9.80;99.90;;;;;;4914787;29;20511;-63
2022/01/29 04:20:17;;;;;;;0.98;0.40;;;9.70;99.90;;;;;;4915745;29;20043;-60
2022/01/29 04:22:45;;;;;;;2.10;0.85;;;9.70;99.90;;;;;;4915835;29;20040;-61
2022/01/29 04:25:13;;;;;;;2.38;0.50;;;9.70;99.90;;;;;;4915735;29;20052;-59
2022/01/29 04:27:44;;;;;;;2.13;0.70;;;9.70;99.90;;;;;;4915768;29;20492;-60
2022/01/29 04:30:30;;;;;;;1.35;0.40;;;9.60;99.90;;;;;;4914535;29;20052;-59
2022/01/29 04:33:23;;;;;;;4.43;0.63;;;9.60;99.90;;;;;;4914296;29;20059;-59
2022/01/29 04:35:52;;;;;;;4.20;1.00;;;9.70;99.90;;;;;;4915522;29;20504;-59
2022/01/29 04:38:20;;;;;;;2.40;0.70;;;9.70;99.90;;;;;;4914589;29;20051;-61
2022/01/29 04:40:47;;;;;;;3.08;0.88;;;9.60;99.90;;;;;;4914650;29;20067;-59
2022/01/29 04:43:16;;;;;;;6.30;0.70;;;9.60;99.90;;;;;;4915549;29;20056;-59
2022/01/29 04:45:44;;;;;;;1.40;0.47;;;9.60;99.90;;;;;;4914367;29;20056;-58
2022/01/29 04:48:12;;;;;;;3.83;0.80;;;9.50;99.90;;;;;;4915323;29;20650;-58
2022/01/29 04:50:41;;;;;;;0.50;0.50;;;9.50;99.90;;;;;;4915525;29;20052;-59
2022/01/29 04:53:09;;;;;;;2.88;0.55;;;9.50;99.90;;;;;;4914315;29;20079;-57
2022/01/29 04:55:37;;;;;;;1.35;0.50;;;9.40;99.90;;;;;;4915679;29;20052;-59
2022/01/29 04:58:05;;;;;;;2.67;1.20;;;9.50;99.90;;;;;;4915439;29;20051;-59
2022/01/29 05:00:35;;;;;;;1.42;0.57;;;9.50;99.90;;;;;;4915253;29;20496;-59
2022/01/29 05:03:13;;;;;;;2.83;1.00;;;9.50;99.90;;;;;;4915273;29;20087;-58
2022/01/29 05:05:43;;;;;;;2.72;0.50;;;9.50;99.90;;;;;;4915410;29;20067;-57
2022/01/29 05:08:14;;;;;;;2.40;0.67;;;9.50;99.90;;;;;;4915182;29;20063;-57
2022/01/29 05:10:41;;;;;;;3.67;0.88;;;9.50;99.90;;;;;;4915331;29;20306;-58
2022/01/29 05:13:13;;;;;;;1.77;0.77;;;9.50;99.90;;;;;;4915193;29;20048;-58
2022/01/29 05:29:32;;;;;;;6.60;0.60;;;9.40;99.90;;;;;;4893630;29;20053;-59
2022/01/29 05:32:05;;;;;;;3.58;0.60;;;9.40;99.90;;;;;;4911216;29;20060;-59
2022/01/29 05:34:33;;;;;;;3.13;0.50;;;9.40;99.90;;;;;;4914981;29;20063;-58
2022/01/29 05:37:02;;;;;;;2.10;0.50;;;9.40;99.90;;;;;;4913236;29;20511;-58
2022/01/29 05:39:31;;;;;;;3.13;0.45;;;9.40;99.90;;;;;;4915023;29;20048;-58
2022/01/29 05:41:59;;;;;;;2.28;0.47;;;9.40;99.90;;;;;;4915079;29;20484;-58
2022/01/29 05:44:27;;;;;;;1.77;0.50;;;9.40;99.90;;;;;;4915122;29;20063;-59
2022/01/29 05:46:55;;;;;;;4.15;0.88;;;9.40;99.90;;;;;;4911278;29;20404;-58
2022/01/29 05:49:23;;;;;;;5.15;0.80;;;9.40;99.90;;;;;;4893395;29;20044;-58
2022/01/29 05:51:52;;;;;;;1.50;0.50;;;9.40;99.90;;;;;;4895247;29;20061;-58
2022/01/29 05:54:20;;;;;;;3.58;0.60;;;9.40;99.90;;;;;;4909839;29;20060;-59
2022/01/29 05:56:49;;;;;;;3.13;0.40;;;9.50;99.90;;;;;;4915326;29;20052;-63
2022/01/29 05:59:17;;;;;;;0.98;0.50;;;9.50;99.90;;;;;;4915034;29;20535;-64
2022/01/29 06:01:45;;;;;;;6.88;0.85;;;9.60;99.90;;;;;;4912661;29;20047;-63
2022/01/29 06:04:13;;;;;;;8.23;0.95;;;9.60;99.90;;;;;;4892512;29;20048;-61
2022/01/29 06:06:41;;;;;;;1.48;0.50;;;9.70;99.90;;;;;;4891736;29;20057;-62
2022/01/29 06:09:10;;;;;;;3.35;1.30;;;9.70;99.90;;;;;;4893112;29;20068;-60
2022/01/29 06:11:38;;;;;;;3.88;0.88;;;9.80;99.90;;;;;;4896296;29;20356;-60
2022/01/29 06:14:06;;;;;;;7.93;0.93;;;9.80;99.90;;;;;;4894425;29;20146;-62
2022/01/29 06:16:33;;;;;;;4.30;0.68;;;9.80;99.90;;;;;;4896123;29;20060;-63
2022/01/29 06:19:01;;;;;;;3.85;1.15;;;9.80;99.90;;;;;;4905345;29;20056;-61
2022/01/29 06:21:29;;;;;;;4.85;1.00;;;9.90;99.90;;;;;;4894250;29;20045;-62
2022/01/29 06:23:58;;;;;;;3.25;0.75;;;9.80;99.90;;;;;;4892120;29;20052;-61
2022/01/29 06:26:26;;;;;;;6.80;0.80;;;9.90;99.90;;;;;;4893543;29;20053;-64
2022/01/29 06:28:54;;;;;;;3.75;0.65;;;9.80;99.90;;;;;;4895299;29;20056;-61
2022/01/29 06:31:22;;;;;;;4.05;0.80;;;9.90;99.90;;;;;;4895642;29;20500;-64
2022/01/29 06:33:50;;;;;;;6.13;0.88;;;9.80;99.90;;;;;;4895388;29;20048;-63
2022/01/29 06:36:18;;;;;;;5.65;0.68;;;9.80;99.90;;;;;;4894100;29;20508;-60
2022/01/29 06:38:46;;;;;;;6.20;1.20;;;9.70;99.90;;;;;;4893305;29;20051;-60
2022/01/29 06:41:14;;;;;;;3.05;0.80;;;9.80;99.90;;;;;;4876089;29;20055;-61
2022/01/29 06:43:42;;;;;;;3.50;0.65;;;9.80;99.90;;;;;;4895190;29;20067;-59
2022/01/29 06:46:10;;;;;;;7.50;1.15;;;9.80;99.90;;;;;;4895480;29;20052;-62
2022/01/29 06:48:38;;;;;;;3.10;0.70;;;9.80;99.90;;;;;;4895307;29;20064;-59
2022/01/29 06:51:06;;;;;;;4.00;0.73;;;9.80;99.90;;;;;;4895425;29;20056;-63
2022/01/29 06:53:34;;;;;;;3.95;0.65;;;9.80;99.90;;;;;;4895113;29;20505;-62
2022/01/29 06:56:02;;;;;;;1.17;0.63;;;9.90;99.90;;;;;;4894468;29;20056;-60
2022/01/29 06:58:30;;;;;;;5.00;1.42;;;9.80;99.90;;;;;;4891774;29;20052;-62
2022/01/29 07:01:18;;;;;;;3.78;0.75;;;9.80;99.90;;;;;;4892048;29;20536;-60
2022/01/29 07:03:46;;;;;;;1.65;0.57;;;9.80;99.90;;;;;;4879509;29;20060;-60
2022/01/29 07:06:14;;;;;;;5.80;0.60;;;9.90;99.90;;;;;;4891582;29;20048;-58
2022/01/29 07:08:42;;;;;;;7.70;0.68;;;9.90;99.90;;;;;;4887535;29;20052;-59
2022/01/29 07:11:09;;;;;;;5.85;0.75;;;10.00;99.90;;;;;;4895083;29;20053;-58
2022/01/29 07:13:38;;;;;;;2.65;0.70;;;10.00;99.90;;;;;;4894601;29;20044;-58
2022/01/29 07:16:05;;;;;;;1.13;0.50;;;10.10;99.90;;;;;;4895065;29;20485;-60
2022/01/29 07:18:34;;;;;;;1.73;0.70;;;10.20;99.90;;;;;;4894971;29;20040;-59
2022/01/29 07:21:02;;;;;;;3.70;0.85;;;10.20;99.90;;;;;;4909216;29;20119;-59
2022/01/29 07:23:34;;;;;;;9.02;1.10;;;10.20;99.90;;;;;;4894557;29;20060;-59
2022/01/29 07:26:02;;;;;;;4.20;0.80;;;10.20;99.90;;;;;;4893582;29;20041;-61
2022/01/29 07:28:32;;;;;;;4.43;0.70;;;10.20;99.90;;;;;;4893195;29;20061;-62
2022/01/29 07:31:00;;;;;;;5.78;0.75;;;10.20;99.90;;;;;;4893274;29;20122;-60
2022/01/29 07:33:29;;;;;;;3.33;1.00;;;10.20;99.90;;;;;;4895387;29;20040;-60
2022/01/29 07:35:57;;;;;;;7.25;0.70;;;10.20;99.90;;;;;;4911135;29;20059;-60
2022/01/29 07:38:26;;;;;;;2.95;0.80;;;10.10;99.90;;;;;;4902155;29;20099;-59
2022/01/29 07:40:54;;;;;;;4.07;0.93;;;10.10;99.90;;;;;;4894353;29;20045;-61
2022/01/29 07:43:21;;;;;;;7.95;0.82;;;10.10;99.90;;;;;;4893997;29;20400;-58
2022/01/29 07:45:49;;;;;;;1.38;0.80;;;10.10;99.90;;;;;;4892983;29;20056;-58
2022/01/29 07:48:17;;;;;;;4.32;0.90;;;10.10;99.90;;;;;;4894189;29;20056;-58
2022/01/29 07:50:45;;;;;;;7.78;1.48;;;10.00;99.90;;;;;;4894143;29;20064;-59
2022/01/29 07:53:13;;;;;;;4.75;0.95;;;10.00;99.90;;;;;;4892415;29;20405;-58
2022/01/29 07:55:41;;;;;;;8.57;1.17;;;9.90;99.90;;;;;;4911852;29;20055;-58
2022/01/29 07:58:10;;;;;;;6.07;0.70;;;9.90;99.90;;;;;;4912749;29;20048;-58
2022/01/29 08:00:38;;;;;;;7.17;1.17;;;9.90;99.90;;;;;;4912639;29;20048;-59
2022/01/29 08:03:06;;;;;;;5.30;1.10;;;9.80;99.90;;;;;;4908657;29;20310;-59
2022/01/29 08:05:35;;;;;;;4.53;1.55;;;9.90;99.90;;;;;;4890979;29;20493;-62
2022/01/29 08:08:04;;;;;;;7.80;0.80;;;9.80;99.90;;;;;;4890698;29;20051;-59
2022/01/29 08:10:33;;;;;;;5.78;1.00;;;9.80;99.90;;;;;;4890862;29;20063;-58
2022/01/29 08:13:01;;;;;;;6.57;0.70;;;9.70;99.90;;;;;;4890271;29;20484;-59
2022/01/29 08:15:28;;;;;;;7.90;1.33;;;9.70;99.90;;;;;;4890482;29;20504;-59
2022/01/29 08:17:56;;;;;;;5.03;1.00;;;9.70;99.90;;;;;;4890540;29;20053;-57
2022/01/29 08:20:24;;;;;;;6.97;1.02;;;9.70;99.90;;;;;;4891233;29;20416;-58
2022/01/29 08:22:52;;;;;;;5.32;0.93;;;9.60;99.90;;;;;;4884912;29;20078;-59
2022/01/29 08:25:20;;;;;;;8.48;1.33;;;9.60;99.90;;;;;;4912465;29;20079;-59
2022/01/29 08:27:48;;;;;;;5.30;1.55;;;9.70;99.90;;;;;;4912047;29;20624;-58
2022/01/29 08:30:16;;;;;;;5.00;1.10;;;9.70;99.90;;;;;;4912237;29;20040;-58
2022/01/29 08:32:44;;;;;;;5.82;1.33;;;9.70;99.90;;;;;;4912225;29;20052;-58
2022/01/29 08:35:15;;;;;;;2.58;0.40;;;9.70;99.90;;;;;;4897783;29;20040;-60
2022/01/29 08:37:46;;;;;;;6.15;0.70;;;9.70;99.90;;;;;;4893263;29;20497;-60
2022/01/29 08:40:15;;;;;;;6.43;1.33;;;9.80;99.90;;;;;;4893336;29;20067;-65
2022/01/29 08:42:43;;;;;;;6.70;1.00;;;9.80;99.90;;;;;;4893189;29;20064;-61
2022/01/29 08:45:13;;;;;;;6.00;0.70;;;9.90;99.90;;;;;;4861633;29;20052;-65
2022/01/29 08:47:41;;;;;;;9.98;1.52;;;9.90;99.90;;;;;;4892970;29;20075;-62
2022/01/29 08:50:11;;;;;;;7.78;0.80;;;9.90;99.90;;;;;;4893104;29;20052;-59
2022/01/29 08:52:39;;;;;;;4.22;0.70;;;9.90;99.90;;;;;;4904890;29;20048;-63
2022/01/29 08:55:09;;;;;;;5.88;0.90;;;10.00;99.90;;;;;;4893510;29;20048;-60
2022/01/29 08:57:37;;;;;;;4.47;0.77;;;10.00;99.90;;;;;;4893087;29;20048;-59
2022/01/29 09:00:07;;;;;;;6.97;1.65;;;10.10;99.90;;;;;;4893333;29;20548;-61
2022/01/29 09:02:36;;;;;;;5.53;1.25;;;10.20;99.90;;;;;;4891768;29;20053;-63
2022/01/29 09:05:06;;;;;;;5.07;0.80;;;10.30;99.90;;;;;;4893317;29;20544;-61
2022/01/29 09:07:34;;;;;;;5.38;1.63;;;10.40;99.90;;;;;;4891670;29;20049;-60
2022/01/29 09:10:02;;;;;;;11.15;1.35;;;10.50;99.90;;;;;;4892910;29;20500;-61
2022/01/29 09:12:30;;;;;;;6.70;0.60;;;10.60;99.90;;;;;;4892838;29;20056;-63
2022/01/29 09:14:59;;;;;;;7.03;2.00;;;10.70;99.90;;;;;;4893395;29;20382;-64
2022/01/29 09:17:27;;;;;;;8.50;1.20;;;10.80;99.90;;;;;;4891908;29;20056;-63
2022/01/29 09:19:55;;;;;;;6.13;1.33;;;10.80;99.90;;;;;;4893040;29;20647;-64
2022/01/29 09:22:22;;;;;;;7.72;1.35;;;10.90;99.90;;;;;;4892757;29;20041;-65
2022/01/29 09:24:50;;;;;;;4.38;1.00;;;11.00;99.90;;;;;;4891573;29;20401;-61
2022/01/29 09:27:18;;;;;;;4.90;0.95;;;11.00;99.90;;;;;;4895670;29;20404;-65
2022/01/29 09:29:46;;;;;;;2.08;0.90;;;11.10;99.90;;;;;;4879377;29;20056;-61
2022/01/29 09:32:14;;;;;;;11.73;1.55;;;11.20;99.90;;;;;;4896442;29;20052;-66
2022/01/29 09:34:42;;;;;;;7.22;1.38;;;11.30;99.90;;;;;;4897035;29;20052;-62
2022/01/29 09:37:09;;;;;;;6.80;1.30;;;11.40;99.90;;;;;;4896500;29;20048;-58
2022/01/29 09:39:38;;;;;;;6.10;1.10;;;11.40;99.90;;;;;;4895316;29;20400;-60
2022/01/29 09:42:07;;;;;;;9.60;1.27;;;11.50;99.90;;;;;;4896413;29;20052;-58
2022/01/29 09:44:36;;;;;;;4.75;0.50;;;11.50;99.90;;;;;;4896542;29;20156;-58
2022/01/29 09:47:05;;;;;;;7.90;0.80;;;11.50;99.90;;;;;;4896390;29;20056;-60
2022/01/29 09:49:34;;;;;;;6.57;1.07;;;11.50;99.90;;;;;;4896735;29;20544;-60
2022/01/29 09:52:02;;;;;;;6.93;1.00;;;11.60;99.90;;;;;;4896083;29;20629;-60
2022/01/29 09:54:30;;;;;;;2.65;0.57;;;11.60;99.90;;;;;;4899753;29;20055;-59
2022/01/29 09:56:58;;;;;;;4.82;0.65;;;11.60;99.90;;;;;;4913997;29;20051;-58
2022/01/29 09:59:26;;;;;;;5.57;0.68;;;11.70;99.90;;;;;;4913702;29;20055;-58
2022/01/29 10:01:54;;;;;;;6.97;0.82;;;11.70;99.90;;;;;;4915023;29;20060;-57
2022/01/29 10:04:24;;;;;;;2.72;0.93;;;11.70;99.90;;;;;;4911222;29;20060;-59
2022/01/29 10:07:26;;;;;;;5.82;1.83;;;11.80;99.90;;;;;;4893013;29;20075;-60
2022/01/29 10:09:56;;;;;;;3.88;0.70;;;11.80;99.90;;;;;;4872739;29;20052;-61
2022/01/29 10:12:29;;;;;;;6.60;0.82;;;11.80;99.90;;;;;;4895556;29;20067;-58
2022/01/29 10:15:01;;;;;;;4.07;0.63;;;11.90;99.90;;;;;;4896082;29;20056;-60
2022/01/29 10:17:47;;;;;;;4.80;0.88;;;11.80;99.90;;;;;;4894775;29;20059;-58
2022/01/29 10:20:24;;;;;;;4.10;0.57;;;11.80;99.90;;;;;;4894400;29;20052;-59
2022/01/29 10:22:52;;;;;;;7.07;0.57;;;11.90;99.90;;;;;;4895823;29;20056;-58
2022/01/29 10:25:31;;;;;;;4.22;0.47;;;11.90;99.90;;;;;;4895809;29;20057;-62
2022/01/29 10:28:11;;;;;;;3.90;0.57;;;11.90;99.90;;;;;;4894278;29;20053;-58
2022/01/29 10:30:48;;;;;;;1.65;0.80;;;11.90;99.90;;;;;;4895544;29;20052;-60
2022/01/29 10:33:23;;;;;;;4.28;0.40;;;12.00;99.90;;;;;;4895345;29;20060;-58
2022/01/29 10:35:54;;;;;;;9.32;0.88;;;11.90;99.90;;;;;;4907313;29;20052;-66
2022/01/29 10:38:30;;;;;;;1.73;0.43;;;12.00;99.90;;;;;;4901634;29;20060;-63
2022/01/29 10:41:25;;;;;;;1.88;0.47;;;11.90;99.90;;;;;;4895646;29;20060;-62
2022/01/29 10:44:21;;;;;;;1.92;0.50;;;11.90;99.90;;;;;;4895373;29;20490;-64
2022/01/29 10:46:55;;;;;;;2.08;0.55;;;11.80;99.90;;;;;;4893946;29;20063;-64
2022/01/29 10:49:32;;;;;;;3.80;0.40;;;11.80;99.90;;;;;;4894976;29;20060;-59
2022/01/29 10:52:14;;;;;;;4.35;0.38;;;11.80;99.90;;;;;;4907851;29;20060;-58
2022/01/29 10:54:44;;;;;;;5.10;0.68;;;11.80;99.90;;;;;;4913624;29;20052;-58
2022/01/29 10:57:16;;;;;;;1.45;0.28;;;11.80;99.90;;;;;;4913308;29;20048;-60
2022/01/29 10:59:53;;;;;;;1.05;0.30;;;11.90;99.90;;;;;;4895144;29;20053;-61
2022/01/29 11:02:25;;;;;;;5.65;0.95;;;12.00;99.90;;;;;;4907536;29;20051;-62
2022/01/29 11:04:53;;;;;;;1.88;0.43;;;12.00;99.90;;;;;;4895174;29;20484;-60
2022/01/29 11:07:28;;;;;;;1.70;0.47;;;12.00;99.90;;;;;;4894930;29;20055;-58
2022/01/29 11:09:59;;;;;;;8.40;1.08;;;11.90;99.90;;;;;;4905567;29;20055;-58
2022/01/29 11:12:43;;;;;;;5.00;0.65;;;11.90;99.90;;;;;;4908482;29;20056;-59
2022/01/29 11:15:11;;;;;;;1.55;0.55;;;12.00;99.90;;;;;;4895059;29;20052;-59
2022/01/29 11:17:40;;;;;;;4.63;0.77;;;12.00;99.90;;;;;;4894824;29;20420;-57
2022/01/29 11:20:10;;;;;;;2.95;0.63;;;11.80;99.90;;;;;;4902857;29;20036;-59
2022/01/29 11:22:47;;;;;;;2.10;0.45;;;11.80;99.90;;;;;;4894252;29;20055;-58
2022/01/29 11:25:22;;;;;;;6.90;0.65;;;11.70;99.90;;;;;;4893643;29;20045;-64
2022/01/29 11:28:18;;;;;;;3.78;0.40;;;11.70;99.90;;;;;;4891898;29;20049;-61
2022/01/29 11:31:07;;;;;;;7.03;0.47;;;11.70;99.90;;;;;;4909733;29;20374;-58
2022/01/29 11:33:58;;;;;;;2.53;0.45;;;11.70;99.90;;;;;;4896533;29;20053;-59
2022/01/29 11:36:48;;;;;;;1.00;0.45;;;11.80;99.90;;;;;;4903733;29;20055;-59
2022/01/29 11:39:24;;;;;;;2.30;0.40;;;12.00;99.90;;;;;;4899407;29;20067;-59
2022/01/29 11:42:11;;;;;;;0.82;0.30;;;12.10;99.90;;;;;;4911828;29;20044;-60
2022/01/29 11:44:41;;;;;;;4.32;0.95;;;12.40;99.90;;;;;;4911626;29;20476;-58
2022/01/29 11:47:25;;;;;;;2.47;0.57;;;12.70;99.90;;;;;;4910640;29;20048;-60
2022/01/29 11:50:15;;;;;;;6.40;0.68;;;13.10;99.90;;;;;;4910963;29;20055;-59
2022/01/29 11:52:57;;;;;;;2.25;0.60;;;13.30;99.90;;;;;;4892425;29;20065;-58
2022/01/29 11:55:42;;;;;;;1.73;0.40;;;13.60;99.90;;;;;;4897638;29;20044;-60
2022/01/29 11:58:13;;;;;;;13.52;1.60;;;13.60;99.90;;;;;;4894307;29;20064;-58
2022/01/29 12:00:44;;;;;;;14.68;2.13;;;13.40;99.90;;;;;;4909941;29;20040;-60
2022/01/29 12:03:34;;;;;;;11.73;2.03;;;13.00;99.90;;;;;;4903563;29;20056;-60
2022/01/29 12:09:03;;;;;;;18.42;2.38;;;12.10;99.90;;;;;;4900882;29;20067;-58
2022/01/29 12:11:32;;;;;;;15.20;2.47;;;11.80;99.90;;;;;;4912699;29;20393;-59
2022/01/29 12:14:14;;;;;;;31.85;4.07;;;11.50;99.90;;;;;;4897099;29;20052;-60
2022/01/29 12:17:11;;;;;;;21.40;3.30;;;11.30;99.90;;;;;;4894158;29;20408;-64
2022/01/29 12:19:46;;;;;;;35.33;4.28;;;11.20;99.90;;;;;;4892809;29;20400;-63
2022/01/29 12:22:21;;;;;;;35.70;5.32;;;11.10;99.90;;;;;;4895152;29;20056;-60
2022/01/29 12:24:50;;;;;;;24.85;4.47;;;11.00;99.90;;;;;;4912399;29;20059;-59
2022/01/29 12:27:18;;;;;;;52.97;14.15;;;11.00;99.90;;;;;;4911784;29;20535;-59
2022/01/29 12:29:46;;;;;;;40.83;7.93;;;11.00;99.90;;;;;;4912062;29;20443;-59
2022/01/29 12:32:14;;;;;;;46.15;16.58;;;11.00;99.90;;;;;;4910481;29;20059;-58
2022/01/29 12:34:54;;;;;;;28.98;3.95;;;11.00;99.90;;;;;;4902817;29;20044;-57
2022/01/29 12:37:22;;;;;;;20.13;3.47;;;11.00;99.90;;;;;;4912146;29;20401;-60
2022/01/29 12:40:21;;;;;;;18.67;4.20;;;11.20;99.90;;;;;;4911100;29;20055;-58
2022/01/29 12:42:57;;;;;;;22.40;4.15;;;11.80;99.90;;;;;;4912102;29;20133;-59
2022/01/29 12:45:28;;;;;;;24.45;4.07;;;12.30;99.90;;;;;;4912222;29;20056;-59
2022/01/29 12:48:07;;;;;;;24.10;4.15;;;12.90;95.90;;;;;;4911843;29;20056;-58
2022/01/29 12:50:35;;;;;;;28.80;3.78;;;13.20;94.20;;;;;;4912114;29;20048;-58
2022/01/29 12:53:08;;;;;;;22.65;3.67;;;13.40;92.70;;;;;;4911928;29;20403;-59
2022/01/29 12:55:37;;;;;;;15.85;3.25;;;13.50;91.80;;;;;;4912333;29;20074;-61
2022/01/29 12:58:05;;;;;;;25.42;4.05;;;13.60;90.70;;;;;;4910045;29;20059;-61
2022/01/29 13:00:35;;;;;;;22.88;4.00;;;13.60;89.50;;;;;;4911355;29;20059;-64
2022/01/29 13:03:05;;;;;;;;;;;13.70;90.50;;;;;;4903340;29;20056;-62
2022/01/29 13:05:44;;;;;;;19.38;4.53;;;13.80;89.20;;;;;;4893351;29;19924;-62
2022/01/29 13:08:27;;;;;;;20.15;3.10;;;13.90;86.80;;;;;;4893566;29;20061;-65
2022/01/29 13:10:55;;;;;;;20.98;3.42;;;13.90;88.50;;;;;;4893129;29;20400;-63
2022/01/29 13:13:32;;;;;;;28.67;4.65;;;13.90;87.10;;;;;;4892645;29;20481;-61
2022/01/29 13:16:00;;;;;;;19.70;3.85;;;14.00;86.30;;;;;;4905773;29;20355;-58
2022/01/29 13:18:30;;;;;;;16.55;4.45;;;14.00;84.90;;;;;;4910528;29;20063;-59
2022/01/29 13:20:59;;;;;;;22.55;4.13;;;14.00;87.20;;;;;;4911658;29;20048;-60
2022/01/29 13:23:36;;;;;;;18.80;3.60;;;14.20;84.30;;;;;;4900768;29;20049;-60
2022/01/29 13:26:20;;;;;;;24.17;3.40;;;14.10;83.50;;;;;;4892949;29;20512;-61
2022/01/29 13:29:06;;;;;;;22.00;3.38;;;14.10;84.90;;;;;;4903203;29;20052;-63